Federal Sable — V7WS4 — position and weather

sailwx.info

Track history (hours):
 
Tides and Currents Weather Stations Pressure Air Temp Water Temp Dewpoint Dewpoint Depression Visibility Wind Speed Wind Dir Waves Ship Positions

Federal Sable

Last reported at 2014-Dec-16 19:14 UTC. Time now 2014-Dec-20 09:44 UTC.
Position N 39°12' W 009°51'.

Length 190 m; draft 6.3 m.

Type: Cargo ship. MMSI: 538004380.

Date/timePositionNaut miles runAvg speedWind from/ knotsBaromVisibWave heightAir tempDewpointWater temp
2014-Dec-16 19:14N 39°12' W 009°51'6 7.7
2014-Dec-16 18:30N 39°06' W 009°52'8 8.2
2014-Dec-16 17:33N 38°59' W 009°51'8 7.9
2014-Dec-16 16:33N 38°51' W 009°51'8 7.9
2014-Dec-16 15:33N 38°43' W 009°51'8 7.7
2014-Dec-16 14:33N 38°35' W 009°49'8 7.7
2014-Dec-16 13:33N 38°28' W 009°47'8 8.1
2014-Dec-16 12:33N 38°20' W 009°44'10 8.2
2014-Dec-16 11:22N 38°10' W 009°42'7 8.2
2014-Dec-16 10:33N 38°04' W 009°40'8 8.0
2014-Dec-16 09:33N 37°56' W 009°37'9 8.6
2014-Dec-16 08:33N 37°48' W 009°35'9 9.4
2014-Dec-16 07:33N 37°39' W 009°32'215 9.8
2014-Dec-15 09:34N 35°58' W 005°34'10 9.6
2014-Dec-15 08:34N 36°01' W 005°23'10 9.7
2014-Dec-15 07:33N 36°03' W 005°11'21910.4
2014-Dec-14 10:34N 37°19' W 000°56'1212.1
2014-Dec-14 09:33N 37°27' W 000°44'1412.0
2014-Dec-14 08:25N 37°36' W 000°32'1012.1
2014-Dec-14 07:33N 37°45' W 000°24'1211.8
2014-Dec-14 06:30N 37°56' W 000°16'5911.8
2014-Dec-14 01:28N 38°45' E 000°26'1111.6
2014-Dec-14 00:33N 38°53' E 000°34'1311.5
2014-Dec-13 23:24N 39°03' E 000°45'1011.5
2014-Dec-13 22:33N 39°11' E 000°53'1111.2
2014-Dec-13 21:34N 39°19' E 001°03'1111.2
2014-Dec-13 20:33N 39°27' E 001°13'1111.3
2014-Dec-13 19:33N 39°35' E 001°23'1111.3
2014-Dec-13 18:34N 39°44' E 001°33'1211.6
2014-Dec-13 17:33N 39°52' E 001°43'1111.4
2014-Dec-13 16:34N 40°01' E 001°53'1211.6
2014-Dec-13 15:33N 40°09' E 002°03'1110.9
2014-Dec-13 14:33N 40°18' E 002°12'1010.4
2014-Dec-13 13:33N 40°25' E 002°21'1010.3
2014-Dec-13 12:34N 40°33' E 002°30'1010.3
2014-Dec-13 11:33N 40°41' E 002°39'1010.1
2014-Dec-13 10:33N 40°48' E 002°48'13 9.7
2014-Dec-13 09:12N 40°58' E 002°60'9 9.3
2014-Dec-13 08:17N 41°04' E 003°07'6 8.8
2014-Dec-13 07:33N 41°09' E 003°13'137 6.7
2014-Dec-12 11:09N 43°24' E 003°43'0 0.0
2014-Dec-12 10:27N 43°24' E 003°43'0 0.0
2014-Dec-12 09:33N 43°24' E 003°43'0 0.0
2014-Dec-12 08:30N 43°24' E 003°43'0 0.0
2014-Dec-12 07:27N 43°24' E 003°43'0 0.0
2014-Dec-12 06:27N 43°24' E 003°43'0 0.0
2014-Dec-12 05:33N 43°24' E 003°43'0 0.0
2014-Dec-12 04:33N 43°24' E 003°43'0 0.0
2014-Dec-12 03:33N 43°24' E 003°43'0 0.0
2014-Dec-12 02:12N 43°24' E 003°43'0 0.0
2014-Dec-12 01:27N 43°24' E 003°43'0 0.0
2014-Dec-12 00:27N 43°24' E 003°43'0 0.0
2014-Dec-11 23:18N 43°24' E 003°43'0 0.0
2014-Dec-11 21:20N 43°24' E 003°43'0 0.0
2014-Dec-11 20:33N 43°24' E 003°43'0 0.0
2014-Dec-11 19:18N 43°24' E 003°43'0 0.0
2014-Dec-11 18:27N 43°24' E 003°43'0 0.0
2014-Dec-11 17:24N 43°24' E 003°43'0 0.0
2014-Dec-11 16:33N 43°24' E 003°43'0 0.0
2014-Dec-11 15:18N 43°24' E 003°43'0 0.0
2014-Dec-11 14:30N 43°24' E 003°43'0 0.0
2014-Dec-11 13:27N 43°24' E 003°43'0 0.0
2014-Dec-11 12:30N 43°24' E 003°43'0 0.0
2014-Dec-11 11:15N 43°24' E 003°43'0 0.0
2014-Dec-11 10:33N 43°24' E 003°43'0 0.0
2014-Dec-11 09:33N 43°24' E 003°43'0 0.0
2014-Dec-11 08:24N 43°24' E 003°43'0 0.0
2014-Dec-11 07:27N 43°24' E 003°43'0 0.0
2014-Dec-11 06:30N 43°24' E 003°43'0 0.0
2014-Dec-11 05:26N 43°24' E 003°43'0 0.0
2014-Dec-11 04:33N 43°24' E 003°43'0 0.0
2014-Dec-11 03:33N 43°24' E 003°43'0 0.0
2014-Dec-11 02:33N 43°24' E 003°43'0 0.0
2014-Dec-11 01:33N 43°24' E 003°43'0 0.0
2014-Dec-11 00:33N 43°24' E 003°43'0 0.0
2014-Dec-10 23:33N 43°24' E 003°43'0 0.0
2014-Dec-10 22:33N 43°24' E 003°43'0 0.0
2014-Dec-10 21:24N 43°24' E 003°43'0 0.0
2014-Dec-10 19:33N 43°24' E 003°43'0 0.0
2014-Dec-10 18:27N 43°24' E 003°43'0 0.0
2014-Dec-10 15:31N 43°24' E 003°43'0 0.0
2014-Dec-10 11:27N 43°24' E 003°43'0 0.0
2014-Dec-10 09:33N 43°24' E 003°43'0 0.0
2014-Dec-10 08:24N 43°24' E 003°43'0 0.0
2014-Dec-10 04:09N 43°24' E 003°43'0 0.0
2014-Dec-10 03:33N 43°24' E 003°43'0 0.0
2014-Dec-10 01:06N 43°24' E 003°43'0 0.0
2014-Dec-10 00:33N 43°24' E 003°43'0 0.0
2014-Dec-09 22:24N 43°24' E 003°43'0 0.0
2014-Dec-09 21:27N 43°24' E 003°43'0 0.0
2014-Dec-09 17:24N 43°24' E 003°43'0 0.0
2014-Dec-09 15:27N 43°24' E 003°43'0 0.0
2014-Dec-09 13:27N 43°24' E 003°43'0 0.0
2014-Dec-09 12:30N 43°24' E 003°43'0 0.0
2014-Dec-09 11:28N 43°24' E 003°43'0 0.0
2014-Dec-09 10:28N 43°24' E 003°43'0 0.0
2014-Dec-09 09:24N 43°24' E 003°43'0 0.0
2014-Dec-09 08:33N 43°24' E 003°43'0 0.0
2014-Dec-09 00:33N 43°24' E 003°43'0 0.0
2014-Dec-08 18:33N 43°24' E 003°43'0 0.0
2014-Dec-08 12:33N 43°24' E 003°43'0 0.0
2014-Dec-08 11:24N 43°24' E 003°43'0 0.0
2014-Dec-08 10:33N 43°24' E 003°43'0 0.0
2014-Dec-08 09:33N 43°24' E 003°43'0 0.0
2014-Dec-07 15:27N 43°24' E 003°43'0 0.0
2014-Dec-07 13:27N 43°24' E 003°43'0 0.0
2014-Dec-06 19:27N 43°24' E 003°43'  
Track history (hours):
 
Tides and Currents Weather Stations Pressure Air Temp Water Temp Dewpoint Dewpoint Depression Visibility Wind Speed Wind Dir Waves Ship Positions

Federal Sable

Last reported at 2014-Dec-16 19:14 UTC. Time now 2014-Dec-20 09:44 UTC.
Position N 39°12' W 009°51'.

Length 190 m; draft 6.3 m.

Type: Cargo ship. MMSI: 538004380.

Date/timePositionNaut miles runAvg speedWind from/ knotsBaromVisibWave heightAir tempDewpointWater temp
2014-Dec-16 19:14N 39°12' W 009°51'6 7.7
2014-Dec-16 18:30N 39°06' W 009°52'8 8.2
2014-Dec-16 17:33N 38°59' W 009°51'8 7.9
2014-Dec-16 16:33N 38°51' W 009°51'8 7.9
2014-Dec-16 15:33N 38°43' W 009°51'8 7.7
2014-Dec-16 14:33N 38°35' W 009°49'8 7.7
2014-Dec-16 13:33N 38°28' W 009°47'8 8.1
2014-Dec-16 12:33N 38°20' W 009°44'10 8.2
2014-Dec-16 11:22N 38°10' W 009°42'7 8.2
2014-Dec-16 10:33N 38°04' W 009°40'8 8.0
2014-Dec-16 09:33N 37°56' W 009°37'9 8.6
2014-Dec-16 08:33N 37°48' W 009°35'9 9.4
2014-Dec-16 07:33N 37°39' W 009°32'215 9.8
2014-Dec-15 09:34N 35°58' W 005°34'10 9.6
2014-Dec-15 08:34N 36°01' W 005°23'10 9.7
2014-Dec-15 07:33N 36°03' W 005°11'21910.4
2014-Dec-14 10:34N 37°19' W 000°56'1212.1
2014-Dec-14 09:33N 37°27' W 000°44'1412.0
2014-Dec-14 08:25N 37°36' W 000°32'1012.1
2014-Dec-14 07:33N 37°45' W 000°24'1211.8
2014-Dec-14 06:30N 37°56' W 000°16'5911.8
2014-Dec-14 01:28N 38°45' E 000°26'1111.6
2014-Dec-14 00:33N 38°53' E 000°34'1311.5
2014-Dec-13 23:24N 39°03' E 000°45'1011.5
2014-Dec-13 22:33N 39°11' E 000°53'1111.2
2014-Dec-13 21:34N 39°19' E 001°03'1111.2
2014-Dec-13 20:33N 39°27' E 001°13'1111.3
2014-Dec-13 19:33N 39°35' E 001°23'1111.3
2014-Dec-13 18:34N 39°44' E 001°33'1211.6
2014-Dec-13 17:33N 39°52' E 001°43'1111.4
2014-Dec-13 16:34N 40°01' E 001°53'1211.6
2014-Dec-13 15:33N 40°09' E 002°03'1110.9
2014-Dec-13 14:33N 40°18' E 002°12'1010.4
2014-Dec-13 13:33N 40°25' E 002°21'1010.3
2014-Dec-13 12:34N 40°33' E 002°30'1010.3
2014-Dec-13 11:33N 40°41' E 002°39'1010.1
2014-Dec-13 10:33N 40°48' E 002°48'13 9.7
2014-Dec-13 09:12N 40°58' E 002°60'9 9.3
2014-Dec-13 08:17N 41°04' E 003°07'6 8.8
2014-Dec-13 07:33N 41°09' E 003°13'137 6.7
2014-Dec-12 11:09N 43°24' E 003°43'0 0.0
2014-Dec-12 10:27N 43°24' E 003°43'0 0.0
2014-Dec-12 09:33N 43°24' E 003°43'0 0.0
2014-Dec-12 08:30N 43°24' E 003°43'0 0.0
2014-Dec-12 07:27N 43°24' E 003°43'0 0.0
2014-Dec-12 06:27N 43°24' E 003°43'0 0.0
2014-Dec-12 05:33N 43°24' E 003°43'0 0.0
2014-Dec-12 04:33N 43°24' E 003°43'0 0.0
2014-Dec-12 03:33N 43°24' E 003°43'0 0.0
2014-Dec-12 02:12N 43°24' E 003°43'0 0.0
2014-Dec-12 01:27N 43°24' E 003°43'0 0.0
2014-Dec-12 00:27N 43°24' E 003°43'0 0.0
2014-Dec-11 23:18N 43°24' E 003°43'0 0.0
2014-Dec-11 21:20N 43°24' E 003°43'0 0.0
2014-Dec-11 20:33N 43°24' E 003°43'0 0.0
2014-Dec-11 19:18N 43°24' E 003°43'0 0.0
2014-Dec-11 18:27N 43°24' E 003°43'0 0.0
2014-Dec-11 17:24N 43°24' E 003°43'0 0.0
2014-Dec-11 16:33N 43°24' E 003°43'0 0.0
2014-Dec-11 15:18N 43°24' E 003°43'0 0.0
2014-Dec-11 14:30N 43°24' E 003°43'0 0.0
2014-Dec-11 13:27N 43°24' E 003°43'0 0.0
2014-Dec-11 12:30N 43°24' E 003°43'0 0.0
2014-Dec-11 11:15N 43°24' E 003°43'0 0.0
2014-Dec-11 10:33N 43°24' E 003°43'0 0.0
2014-Dec-11 09:33N 43°24' E 003°43'0 0.0
2014-Dec-11 08:24N 43°24' E 003°43'0 0.0
2014-Dec-11 07:27N 43°24' E 003°43'0 0.0
2014-Dec-11 06:30N 43°24' E 003°43'0 0.0
2014-Dec-11 05:26N 43°24' E 003°43'0 0.0
2014-Dec-11 04:33N 43°24' E 003°43'0 0.0
2014-Dec-11 03:33N 43°24' E 003°43'0 0.0
2014-Dec-11 02:33N 43°24' E 003°43'0 0.0
2014-Dec-11 01:33N 43°24' E 003°43'0 0.0
2014-Dec-11 00:33N 43°24' E 003°43'0 0.0
2014-Dec-10 23:33N 43°24' E 003°43'0 0.0
2014-Dec-10 22:33N 43°24' E 003°43'0 0.0
2014-Dec-10 21:24N 43°24' E 003°43'0 0.0
2014-Dec-10 19:33N 43°24' E 003°43'0 0.0
2014-Dec-10 18:27N 43°24' E 003°43'0 0.0
2014-Dec-10 15:31N 43°24' E 003°43'0 0.0
2014-Dec-10 11:27N 43°24' E 003°43'0 0.0
2014-Dec-10 09:33N 43°24' E 003°43'0 0.0
2014-Dec-10 08:24N 43°24' E 003°43'0 0.0
2014-Dec-10 04:09N 43°24' E 003°43'0 0.0
2014-Dec-10 03:33N 43°24' E 003°43'0 0.0
2014-Dec-10 01:06N 43°24' E 003°43'0 0.0
2014-Dec-10 00:33N 43°24' E 003°43'0 0.0
2014-Dec-09 22:24N 43°24' E 003°43'0 0.0
2014-Dec-09 21:27N 43°24' E 003°43'0 0.0
2014-Dec-09 17:24N 43°24' E 003°43'0 0.0
2014-Dec-09 15:27N 43°24' E 003°43'0 0.0
2014-Dec-09 13:27N 43°24' E 003°43'0 0.0
2014-Dec-09 12:30N 43°24' E 003°43'0 0.0
2014-Dec-09 11:28N 43°24' E 003°43'0 0.0
2014-Dec-09 10:28N 43°24' E 003°43'0 0.0
2014-Dec-09 09:24N 43°24' E 003°43'0 0.0
2014-Dec-09 08:33N 43°24' E 003°43'0 0.0
2014-Dec-09 00:33N 43°24' E 003°43'0 0.0
2014-Dec-08 18:33N 43°24' E 003°43'0 0.0
2014-Dec-08 12:33N 43°24' E 003°43'0 0.0
2014-Dec-08 11:24N 43°24' E 003°43'0 0.0
2014-Dec-08 10:33N 43°24' E 003°43'0 0.0
2014-Dec-08 09:33N 43°24' E 003°43'0 0.0
2014-Dec-07 15:27N 43°24' E 003°43'0 0.0
2014-Dec-07 13:27N 43°24' E 003°43'0 0.0
2014-Dec-06 19:27N 43°24' E 003°43'  

Dump ship's entire track history